Tiempo atmosférico en la estación meteorológica de Autilla del Pino, Palencia (874 m.)



Fecha
DESCASC
Temp. máxima en grados centígrados (hora)
DESCASC
Temp. mínima en grados centígrados (hora)
DESCASC
Temp. media en grados centígrados
DESCASC
Racha de viento máxima en m/sg (hora)
DESCASC
Velocidad máxima media en intervalos de 10 minutos(hora)
DESCASC
Precipitaciones diarias en mm
DESCASC
Precipitaciones de 00:00 a 06:00 en mm
DESCASC
Precipitaciones de 06:00 a 12:00 en mm
DESCASC
Precipitaciones de 12:00 a 18:00 en mm
DESCASC
Precipitaciones de 18:00 a 24:00 en mm
DESCASC
17-08-2018 23.4 (15:30) 11.7 (23:59) 17.5 13.61 (19:20) 9.72 (21:10) 0 0 0 0 0
16-08-2018 30.3 (16:30) 12.1 (06:00) 21.2 13.61 (22:00) 9.72 (21:00) 0 0 0 0 0
15-08-2018 32.3 (18:40) 10.7 (07:00) 21.5 10.56 (04:00) 7.22 (03:50) 0 0 0 0 0
14-08-2018 26.6 (18:40) 12.5 (06:20) 19.6 11.39 (09:50) 8.33 (09:40) 0 0 0 0 0
13-08-2018 29 (18:50) 10.2 (05:50) 19.6 10.28 (23:20) 8.33 (23:20) 0 0 0 0 0
12-08-2018 31.9 (16:40) 13.1 (00:00) 22.5 13.33 (15:10) 8.89 (17:30) 0 0 0 0 0
11-08-2018 32.2 (18:50) 11.3 (00:00) 21.8 9.72 (18:20) 5.28 (04:20) 0 0 0 0 0
10-08-2018 28.3 (18:40) 8.7 (00:00) 18.5 10.83 (00:10) 7.78 (00:10) 0 0 0 0 0
09-08-2018 25.5 (18:40) 10.7 (00:00) 18.1 12.5 (23:40) 8.89 (23:50) 0 0 0 0 0
08-08-2018 30.6 (18:40) 11.1 (00:00) 20.9 11.11 (17:30) 7.5 (18:00) 0 0 0 0 0
07-08-2018 28.8 (18:40) 14.3 (00:00) 21.5 11.94 (22:50) 8.61 (22:50) 0 0 0 0 0
06-08-2018 37.4 (19:00) 16.1 (00:00) 26.8 19.17 (21:10) 7.78 (21:10) 0 0 0 0 0
05-08-2018 34.5 (19:00) 14 (00:00) 24.3 9.17 (00:30) 6.67 (00:40) 0 0 0 0 0
04-08-2018 34.1 (18:50) 17.4 (06:50) 25.7 8.06 (16:40) 5.83 (04:20) 0 0 0 0 0
03-08-2018 36.5 (16:40) 17.1 (00:00) 26.8 9.44 (15:40) 5.83 (19:00) 0 0 0 0 0
02-08-2018 36.6 (18:40) 14.5 (00:00) 25.5 21.67 (00:40) 7.22 (01:10) 0 0 0 0 0
01-08-2018 34 (19:00) 14.3 (06:50) 24.2 10.83 (01:30) 8.06 (01:30) 0 0 0 0 0
31-07-2018 31.5 (18:50) 13.8 (00:00) 22.7 11.67 (20:40) 8.33 (22:50) 0 0 0 0 0
30-07-2018 31.1 (19:00) 11.1 (00:00) 21.1 9.72 (18:10) 6.67 (18:40) 0 0 0 0 0
29-07-2018 29.8 (19:00) 13.3 (00:00) 21.5 10.56 (13:10) 5.83 (19:50) 0 0 0 0 0
28-07-2018 30.8 (19:00) 11.9 (00:00) 21.3 8.06 (18:30) 5 (00:10) 0 0 0 0 0
27-07-2018 30.1 (17:20) 13.9 (00:00) 22 11.67 (16:40) 6.67 (16:00) 0 0 0 0 0
26-07-2018 31.8 (17:20) 14.8 (00:00) 23.3 8.61 (16:00) 5.28 (23:10) 0 0 0 0 0
25-07-2018 33.4 (19:00) 14.6 (00:00) 24 9.44 (00:10) 7.22 (00:10) 0 0 0 0 0
24-07-2018 32.5 (19:00) 13.7 (00:00) 23.1 10 (23:59) 6.67 (22:50) 0 0 0 0 0
23-07-2018 33 (19:10) 11.9 (00:00) 22.4 10 (15:50) 5.83 (01:10) 0 0 0 0 0
22-07-2018 27 (19:00) 9.6 (00:00) 18.3 8.33 (20:10) 5.56 (09:50) 0 0 0 0 0
21-07-2018 20.2 (15:50) 9.4 (04:50) 14.8 6.67 (13:40) 5 (02:20) 0 0 0 0 0
20-07-2018 23.8 (14:50) 12 (00:00) 17.9 12.5 (16:30) 9.17 (16:30) 1.2 0 0 1.2 0

Gráficas

Temp. máximas Temp. mínimas Temp. medias Precipitaciones Rachas de viento máximas Velocidades máximas media en intervalos de 10 minutos

Datos horarios

Fecha y hora oficial Temperatura (ºC) Velocidad del viento (km/h) Dirección del viento Racha (km/h) Dirección de racha Precipitación (mm) Presión (hPa) Tendencia (hPa) Humedad (%)
2018-08-18 23:00:00 15 26 Este 39 Este 0 -- -- 81
2018-08-18 22:00:00 16.8 27 Nordeste 39 Nordeste 0 -- -- 69
2018-08-18 21:00:00 19.3 26 Nordeste 34 Nordeste 0 -- -- 58
2018-08-18 20:00:00 21.9 25 Nordeste 33 Nordeste 0 -- -- 48
2018-08-18 19:00:00 23.9 22 Nordeste 37 Nordeste 0 -- -- 45
2018-08-18 18:00:00 24.7 22 Nordeste 33 Nordeste 0 -- -- 40
2018-08-18 17:00:00 24.1 20 Este 31 Nordeste 0 -- -- 40
2018-08-18 16:00:00 23.9 20 Nordeste 33 Este 0 -- -- 45
2018-08-18 15:00:00 22.4 20 Nordeste 31 Nordeste 0 -- -- 48
2018-08-18 14:00:00 21.2 18 Este 33 Este 0 -- -- 52
2018-08-18 13:00:00 19.5 21 Este 37 Este 0 -- -- 56
2018-08-18 12:00:00 17.3 25 Este 37 Este 0 -- -- 65
2018-08-18 11:00:00 15.1 27 Nordeste 39 Nordeste 0 -- -- 77
2018-08-18 10:00:00 13 28 Nordeste 41 Este 0 -- -- 88
2018-08-18 09:00:00 10.8 23 Nordeste 32 Este 0 -- -- 99
2018-08-18 08:00:00 9 23 Este 30 Este 0 -- -- 99
2018-08-18 07:00:00 8.5 22 Este 32 Este 0 -- -- 99
2018-08-18 06:00:00 8.6 20 Este 29 Este 0 -- -- 99
2018-08-18 05:00:00 8.9 21 Este 33 Este 0 -- -- 99
2018-08-18 04:00:00 9.6 23 Este 37 Este 0 -- -- 96
2018-08-18 03:00:00 9.8 24 Este 34 Este 0 -- -- 96
2018-08-18 02:00:00 10.2 23 Este 36 Este 0 -- -- 95
2018-08-18 01:00:00 11.1 26 Este 48 Este 0 -- -- 92
2018-08-18 00:00:00 11.7 28 Este 42 Este 0 -- -- 95
2018-08-17 23:00:00 12.5 30 Este 41 Este 0 -- -- 94
2018-08-17 22:00:00 13.7 31 Nordeste 46 Este 0 -- -- 89
2018-08-17 21:00:00 15.2 30 Nordeste 46 Nordeste 0 -- -- 83
2018-08-17 20:00:00 17.8 31 Nordeste 49 Nordeste 0 -- -- 74
2018-08-17 19:00:00 19.7 31 Nordeste 44 Nordeste 0 -- -- 70
2018-08-17 18:00:00 21.5 27 Nordeste 39 Este 0 -- -- 65
2018-08-17 17:00:00 22.4 26 Nordeste 42 Este 0 -- -- 65
2018-08-17 16:00:00 22.3 28 Nordeste 42 Este 0 -- -- 66
2018-08-17 15:00:00 22.9 27 Nordeste 44 Este 0 -- -- 67
2018-08-17 14:00:00 22.1 30 Este 42 Nordeste 0 -- -- 69
2018-08-17 13:00:00 21.6 29 Nordeste 44 Nordeste 0 -- -- 72
2018-08-17 12:00:00 20.3 27 Nordeste 44 Nordeste 0 -- -- 78
2018-08-17 11:00:00 19.2 31 Este 44 Este 0 -- -- 85
2018-08-17 10:00:00 16.7 28 Nordeste 39 Nordeste 0 -- -- 94
2018-08-17 09:00:00 15.7 23 Este 36 Este 0 -- -- 96
2018-08-17 08:00:00 14.2 22 Nordeste 32 Nordeste 0 -- -- 99
2018-08-17 07:00:00 13.8 19 Nordeste 26 Nordeste 0 -- -- 99
2018-08-17 06:00:00 13.3 18 Este 33 Nordeste 0 -- -- 99
2018-08-17 05:00:00 13.6 21 Este 35 Nordeste 0 -- -- 99
2018-08-17 04:00:00 13.9 25 Este 41 Este 0 -- -- 99
2018-08-17 03:00:00 14.6 26 Este 42 Este 0 -- -- 98
2018-08-17 02:00:00 14.6 28 Este 48 Este 0 -- -- 99
2018-08-17 01:00:00 15.1 30 Este 40 Este 0 -- -- 99
2018-08-17 00:00:00 15.2 27 Este 47 Nordeste 0 -- -- 99
2018-08-16 23:00:00 15.8 33 Nordeste 49 Este 0 -- -- 99
2018-08-16 22:00:00 17.3 33 Nordeste 49 Este 0 -- -- 94
2018-08-16 21:00:00 19.9 35 Nordeste 47 Nordeste 0 -- -- 78
2018-08-16 20:00:00 23.1 31 Nordeste 44 Nordeste 0 -- -- 62
2018-08-16 19:00:00 28 21 Nordeste 31 Este 0 -- -- 45
2018-08-16 18:00:00 29.8 8 Este 24 Norte 0 -- -- 42
2018-08-16 17:00:00 29.8 15 Nordeste 25 Nordeste 0 -- -- 41
2018-08-16 16:00:00 28.9 9 Nordeste 23 Norte 0 -- -- 41
2018-08-16 15:00:00 28.3 6 Noroeste 20 Noroeste 0 -- -- 44
2018-08-16 14:00:00 27.2 7 Noroeste 17 Noroeste 0 -- -- 48
2018-08-16 13:00:00 26.4 6 Norte 17 Nordeste 0 -- -- 53
2018-08-16 12:00:00 23.7 6 Nordeste 17 Este 0 -- -- 65
2018-08-16 11:00:00 21.7 9 Este 17 Este 0 -- -- 76
2018-08-16 10:00:00 18.7 12 Este 17 Sudeste 0 -- -- 89
2018-08-16 09:00:00 16.4 9 Este 15 Este 0 -- -- 99
2018-08-16 08:00:00 13.9 11 Este 15 Este 0 -- -- 99
2018-08-16 07:00:00 12.6 9 Este 13 Este 0 -- -- 99
2018-08-16 06:00:00 12.2 8 Este 10 Este 0 -- -- 99
2018-08-16 05:00:00 13.2 9 Nordeste 15 Nordeste 0 -- -- 99
2018-08-16 04:00:00 13.8 12 Nordeste 14 Este 0 -- -- 99
2018-08-16 03:00:00 16.5 14 Este 20 Este 0 -- -- 97
2018-08-16 02:00:00 17.6 18 Este 21 Este 0 -- -- 89
2018-08-16 01:00:00 17.9 15 Este 17 Este 0 -- -- 75
2018-08-16 00:00:00 19.5 13 Este 19 Este 0 -- -- 59
2018-08-15 23:00:00 20.3 14 Este 19 Este 0 -- -- 50
2018-08-15 22:00:00 22.5 6 Noroeste 8 Noroeste 0 -- -- 41
2018-08-15 21:00:00 26.6 5 Norte 10 Norte 0 -- -- 38
2018-08-15 20:00:00 28.7 4 Norte 13 Nordeste 0 -- -- 35
2018-08-15 19:00:00 30.2 4 Este 31 Nordeste 0 -- -- 34
2018-08-15 18:00:00 29.2 5 Norte 17 Nordeste 0 -- -- 35
2018-08-15 17:00:00 28.7 4 Sudeste 13 Sudoeste 0 -- -- 35
2018-08-15 16:00:00 28 7 Sur 17 Nordeste 0 -- -- 38
2018-08-15 15:00:00 26.2 5 Nordeste 24 Este 0 -- -- 42
2018-08-15 14:00:00 25.1 5 Este 24 Este 0 -- -- 51
2018-08-15 13:00:00 23.3 12 Este 23 Este 0 -- -- 56
2018-08-15 12:00:00 21.1 11 Este 22 Este 0 -- -- 65
2018-08-15 11:00:00 18.9 15 Este 27 Este 0 -- -- 74
2018-08-15 10:00:00 16.4 20 Este 32 Este 0 -- -- 87
2018-08-15 09:00:00 13.8 21 Nordeste 27 Este 0 -- -- 99
2018-08-15 08:00:00 11.8 14 Este 23 Este 0 -- -- 99
2018-08-15 07:00:00 10.7 11 Este 22 Este 0 -- -- 99
2018-08-15 06:00:00 11.2 17 Este 26 Este 0 -- -- 99
2018-08-15 05:00:00 11.6 21 Este 35 Este 0 -- -- 99
2018-08-15 04:00:00 12.1 26 Nordeste 38 Nordeste 0 -- -- 99
2018-08-15 03:00:00 12.4 22 Este -- -- -- -- -- 99
2018-08-15 02:00:00 13.2 24 Este 36 Este 0 -- -- 99
2018-08-15 01:00:00 13.9 24 Este 32 Este 0 -- -- 98
2018-08-15 00:00:00 14.7 19 Este 31 Este 0 -- -- 93
2018-08-14 23:00:00 16.2 25 Este 35 Este 0 -- -- 84
2018-08-14 22:00:00 18.1 25 Este 33 Este 0 -- -- 71
2018-08-14 21:00:00 20.3 23 Nordeste 32 Este 0 -- -- 60
2018-08-14 20:00:00 23.2 23 Nordeste 34 Este 0 -- -- 52
2018-08-14 19:00:00 24.8 25 Nordeste 37 Nordeste 0 -- -- 48
2018-08-14 18:00:00 25.3 23 Este 39 Nordeste 0 -- -- 48
2018-08-14 17:00:00 25.3 22 Este 40 Este 0 -- -- 50
2018-08-14 16:00:00 25.4 22 Este 34 Este 0 -- -- 51
2018-08-14 15:00:00 24.7 21 Nordeste 37 Nordeste 0 -- -- 55
2018-08-14 14:00:00 23.1 19 Este 32 Nordeste 0 -- -- 59
2018-08-14 13:00:00 21.8 22 Nordeste 38 Este 0 -- -- 64
2018-08-14 12:00:00 20.9 24 Este 40 Este 0 -- -- 68
2018-08-14 11:00:00 18.5 25 Este 39 Este 0 -- -- 77
2018-08-14 10:00:00 17.3 27 Este 41 Este 0 -- -- 86
2018-08-14 09:00:00 15 26 Este 37 Este 0 -- -- 93
2018-08-14 08:00:00 13.1 21 Este 29 Este 0 -- -- 99
2018-08-14 07:00:00 12.5 21 Este 28 Este 0 -- -- 99
2018-08-14 06:00:00 12.6 18 Este 36 Este 0 -- -- 99
2018-08-14 05:00:00 13.4 26 Este 36 Este 0 -- -- 99
2018-08-14 04:00:00 13.4 22 Este 35 Este 0 -- -- 99
2018-08-14 03:00:00 14.1 26 Este 36 Este 0 -- -- 99
2018-08-14 02:00:00 14.2 23 Este 40 Este 0 -- -- 99
2018-08-14 01:00:00 14.6 25 Este 36 Este 0 -- -- 99
2018-08-14 00:00:00 14.5 26 Este 37 Este 0 -- -- 99
2018-08-13 23:00:00 15.5 27 Este 36 Este 0 -- -- 96
2018-08-13 22:00:00 17.5 23 Nordeste 30 Nordeste 0 -- -- 88
2018-08-13 21:00:00 21.1 23 Nordeste 35 Nordeste 0 -- -- 68
2018-08-13 20:00:00 26.4 8 Norte 18 Noroeste 0 -- -- 40
2018-08-13 19:00:00 27.4 10 Noroeste 25 Noroeste 0 -- -- 38
2018-08-13 18:00:00 27.1 11 Oeste 30 Noroeste 0 -- -- 39
2018-08-13 17:00:00 27 13 Noroeste 26 Oeste 0 -- -- 40
2018-08-13 16:00:00 26.6 11 Oeste 27 Oeste 0 -- -- 40
2018-08-13 15:00:00 25.3 12 Noroeste 22 Oeste 0 -- -- 41
2018-08-13 14:00:00 24.1 5 Oeste 22 Noroeste 0 -- -- 48
2018-08-13 13:00:00 22.6 8 Noroeste 24 Oeste 0 -- -- 56
2018-08-13 12:00:00 20.7 12 Oeste 18 Oeste 0 -- -- 68
2018-08-13 11:00:00 18.6 8 Oeste 14 Noroeste 0 -- -- 82
2018-08-13 10:00:00 16.9 5 Oeste 11 Oeste 0 -- -- 92
2018-08-13 09:00:00 14.5 6 Oeste 9 Oeste 0 -- -- 99
2018-08-13 08:00:00 11.3 0 Calma 7 Noroeste 0 -- -- 99
2018-08-13 07:00:00 10.8 7 Noroeste 10 Noroeste 0 -- -- 99
2018-08-13 06:00:00 10.8 8 Noroeste 9 Noroeste 0 -- -- 99
2018-08-13 05:00:00 12 6 Noroeste 8 Noroeste 0 -- -- 99
2018-08-13 04:00:00 12 6 Noroeste 7 Noroeste 0 -- -- 99
2018-08-13 03:00:00 13.7 3 Nordeste 12 Nordeste 0 -- -- 99
2018-08-13 02:00:00 14.8 8 Norte 16 Nordeste 0 -- -- 99
2018-08-13 01:00:00 15.9 10 Norte 17 Noroeste 0 -- -- 94
2018-08-13 00:00:00 18.2 14 Noroeste 22 Noroeste 0 -- -- 74
2018-08-12 23:00:00 20 14 Noroeste 29 Oeste 0 -- -- 64
2018-08-12 22:00:00 23.1 22 Oeste 29 Oeste 0 -- -- 52
2018-08-12 21:00:00 24.5 17 Oeste 39 Noroeste 0 -- -- 48
2018-08-12 20:00:00 27.3 24 Noroeste 34 Noroeste 0 -- -- 41
2018-08-12 19:00:00 27.2 25 Noroeste 44 Oeste 0 -- -- 38
2018-08-12 18:00:00 29.5 27 Oeste 45 Oeste 0 -- -- 37
2018-08-12 17:00:00 30.1 28 Oeste 47 Oeste 0 -- -- 38
2018-08-12 16:00:00 30.8 29 Oeste 48 Oeste 0 -- -- 40
2018-08-12 15:00:00 31 24 Oeste 40 Oeste 0 -- -- 40
2018-08-12 14:00:00 30.6 14 Sudoeste 34 Sudoeste 0 -- -- 42
2018-08-12 13:00:00 28.1 8 Oeste 23 Oeste 0 -- -- 49
2018-08-12 12:00:00 26.8 9 Oeste 16 Oeste 0 -- -- 55
2018-08-12 11:00:00 23.9 4 Noroeste 14 Noroeste 0 -- -- 63
2018-08-12 10:00:00 21.5 10 Sudoeste 19 Sudoeste 0 -- -- 75
2018-08-12 09:00:00 18.8 5 Sudeste 12 Sudeste 0 -- -- 95
2018-08-12 08:00:00 14.8 12 Sudeste 14 Sudeste 0 -- -- 97
2018-08-12 07:00:00 13.3 12 Este 15 Nordeste 0 -- -- 95
2018-08-12 06:00:00 13.8 13 Nordeste 15 Nordeste 0 -- -- 95
2018-08-12 05:00:00 13.9 12 Nordeste 13 Norte 0 -- -- 99
2018-08-12 04:00:00 14.9 9 Nordeste 14 Nordeste 0 -- -- 98
2018-08-12 03:00:00 16.3 4 Noroeste 14 Este 0 -- -- 85
2018-08-12 02:00:00 19 14 Este 22 Este 0 -- -- 70
2018-08-12 01:00:00 20.1 14 Este 23 Este 0 -- -- 57
2018-08-12 00:00:00 21.8 9 Nordeste 15 Nordeste 0 -- -- 47
2018-08-11 23:00:00 21.9 13 Nordeste 15 Nordeste 0 -- -- 45
2018-08-11 22:00:00 23.8 4 Noroeste 10 Noroeste 0 -- -- 43
2018-08-11 21:00:00 26.5 9 Noroeste 18 Noroeste 0 -- -- 40
2018-08-11 20:00:00 30.2 5 Sudoeste 17 Noroeste 0 -- -- 36
2018-08-11 19:00:00 31.5 7 Noroeste 35 Oeste 0 -- -- 36
2018-08-11 18:00:00 30.5 3 Nordeste 19 Sudoeste 0 -- -- 38
2018-08-11 17:00:00 29.9 3 Noroeste 26 Oeste 0 -- -- 38
2018-08-11 16:00:00 30 10 Noroeste 30 Noroeste 0 -- -- 39
2018-08-11 15:00:00 -- 8 Noroeste 20 Noroeste 0 -- -- --
2018-08-11 14:00:00 27.3 9 Noroeste 18 Norte 0 -- -- 47
2018-08-11 13:00:00 27 6 Noroeste 14 Oeste 0 -- -- 55
2018-08-11 12:00:00 24.1 3 Nordeste 11 Sudeste 0 -- -- 64
2018-08-11 11:00:00 21.1 5 Este 13 Este 0 -- -- 75
2018-08-11 10:00:00 18 9 Este 13 Nordeste 0 -- -- 85
2018-08-11 09:00:00 15.1 9 Nordeste 15 Este 0 -- -- 95
2018-08-11 08:00:00 12.3 12 Este 16 Este 0 -- -- 99
2018-08-11 07:00:00 11.3 5 Nordeste 23 Este 0 -- -- 99
2018-08-11 06:00:00 12.1 19 Este 23 Este 0 -- -- 99
2018-08-11 05:00:00 12 14 Este 22 Este 0 -- -- 99
2018-08-11 04:00:00 12.8 19 Este 23 Este 0 -- -- 99
2018-08-11 03:00:00 13 14 Nordeste 24 Este 0 -- -- 99
2018-08-11 02:00:00 14.1 17 Este 23 Este 0 -- -- 99
2018-08-11 01:00:00 15.1 18 Este 22 Este 0 -- -- 97
2018-08-11 00:00:00 16.7 16 Este 23 Este 0 -- -- 88
2018-08-10 23:00:00 18.7 17 Este 26 Este 0 -- -- 74
2018-08-10 22:00:00 19.7 13 Nordeste 17 Nordeste 0 -- -- 47
2018-08-10 21:00:00 22.5 11 Norte 19 Norte 0 -- -- 42
2018-08-10 20:00:00 25.5 13 Norte 19 Norte 0 -- -- 39
2018-08-10 19:00:00 27.3 7 Norte 22 Norte 0 -- -- 39
2018-08-10 18:00:00 26.3 10 Noroeste 22 Este 0 -- -- 40
2018-08-10 17:00:00 27.1 5 Norte 32 Norte 0 -- -- 40
2018-08-10 16:00:00 26.2 9 Oeste 18 Sudeste 0 -- -- 41
2018-08-10 15:00:00 24.2 0 Calma 23 Este 0 -- -- 44
2018-08-10 14:00:00 23.5 9 Nordeste 22 Este 0 -- -- 47
2018-08-10 13:00:00 21.4 12 Nordeste 25 Este 0 -- -- 55
2018-08-10 12:00:00 19.6 13 Este 29 Este 0 -- -- 64
2018-08-10 11:00:00 16.8 13 Este 23 Este 0 -- -- 76
2018-08-10 10:00:00 14.5 14 Este 31 Este 0 -- -- 87
2018-08-10 09:00:00 11.6 24 Este 32 Este 0 -- -- 99
2018-08-10 08:00:00 9.6 21 Este 27 Este 0 -- -- 99
2018-08-10 07:00:00 8.9 23 Este 28 Este 0 -- -- 99
2018-08-10 06:00:00 9 23 Este 31 Este 0 -- -- 99
2018-08-10 05:00:00 9.3 22 Este 29 Este 0 -- -- 99
2018-08-10 04:00:00 9.7 23 Este 35 Este 0 -- -- 99
2018-08-10 03:00:00 10.4 23 Este 37 Este 0 -- -- 99
2018-08-10 02:00:00 11 27 Este 38 Este 0 -- -- 99
2018-08-10 01:00:00 11.1 27 Este 39 Nordeste 0 -- -- 98
2018-08-10 00:00:00 11.5 30 Este 45 Este 0 -- -- 95
2018-08-09 23:00:00 12.1 29 Nordeste 40 Nordeste 0 -- -- 88
2018-08-09 22:00:00 13.9 30 Nordeste 42 Nordeste 0 -- -- 83
2018-08-09 21:00:00 16.4 28 Nordeste 39 Nordeste 0 -- -- 71
2018-08-09 20:00:00 19.7 29 Nordeste 39 Nordeste 0 -- -- 57
2018-08-09 19:00:00 24.4 10 Este 19 Nordeste 0 -- -- 43
2018-08-09 18:00:00 23.6 7 Norte 26 Nordeste 0 -- -- 44
2018-08-09 17:00:00 23.2 12 Norte 23 Norte 0 -- -- 45
2018-08-09 16:00:00 23.4 7 Este 21 Este 0 -- -- 45
2018-08-09 15:00:00 19.9 12 Norte 23 Nordeste 0 -- -- 53
2018-08-09 14:00:00 20.3 11 Nordeste 21 Nordeste 0 -- -- 58
2018-08-09 13:00:00 20.2 7 Nordeste 24 Nordeste 0 -- -- 63
2018-08-09 12:00:00 17.7 5 Este 16 Sudeste 0 -- -- 70
2018-08-09 11:00:00 17.5 9 Este 20 Este 0 -- -- 74
2018-08-09 10:00:00 14.2 2 Este 11 Noroeste 0 -- -- 89
2018-08-09 09:00:00 12.5 8 Noroeste 17 Noroeste 0 -- -- 92
2018-08-09 08:00:00 12 13 Noroeste 15 Noroeste 0 -- -- 94
2018-08-09 07:00:00 11.1 10 Noroeste 18 Noroeste 0 -- -- 95
2018-08-09 06:00:00 14.4 5 Noroeste 17 Noroeste 0 -- -- 89
2018-08-09 05:00:00 15.4 14 Noroeste 19 Noroeste 0 -- -- 85
2018-08-09 04:00:00 15.4 5 Norte 13 Norte 0 -- -- 99
2018-08-09 03:00:00 16.2 6 Nordeste 15 Nordeste 0 -- -- 99
2018-08-09 02:00:00 16.3 10 Nordeste 18 Nordeste 0 -- -- 99
2018-08-09 01:00:00 17.1 13 Nordeste 17 Nordeste 0 -- -- 97
2018-08-09 00:00:00 19.1 14 Noroeste 40 Noroeste 0 -- -- 67
2018-08-08 23:00:00 20.2 15 Noroeste 27 Oeste 0 -- -- 56
2018-08-08 22:00:00 22.5 17 Oeste 27 Oeste 0 -- -- 41
2018-08-08 21:00:00 25.3 13 Oeste 30 Oeste 0 -- -- 37
2018-08-08 20:00:00 27.5 13 Oeste 32 Oeste 0 -- -- 35
2018-08-08 19:00:00 29 22 Oeste 36 Oeste 0 -- -- 32
2018-08-08 18:00:00 28.8 27 Oeste 40 Oeste 0 -- -- 30
2018-08-08 17:00:00 29.2 17 Oeste 39 Oeste 0 -- -- 34
2018-08-08 16:00:00 29 19 Sudoeste 31 Oeste 0 -- -- 35
2018-08-08 15:00:00 27.7 11 Sur 28 Sur 0 -- -- 41
2018-08-08 14:00:00 26.1 7 Sudeste 25 Oeste 0 -- -- 47
2018-08-08 13:00:00 23.7 5 Este 15 Este 0 -- -- 58
2018-08-08 12:00:00 22.2 6 Este 19 Este 0 -- -- 68
2018-08-08 11:00:00 20.2 12 Este 18 Este 0 -- -- 78
2018-08-08 10:00:00 17.7 12 Este 23 Este 0 -- -- 90
2018-08-08 09:00:00 14.6 15 Este 20 Este 0 -- -- 99
2018-08-08 08:00:00 12.5 13 Este 18 Este 0 -- -- 99
2018-08-08 07:00:00 11.6 11 Este 15 Este 0 -- -- 99
2018-08-08 06:00:00 11.7 10 Este 16 Este 0 -- -- 99
2018-08-08 05:00:00 11.9 12 Nordeste 18 Este 0 -- -- 99
2018-08-08 04:00:00 12.7 15 Este 25 Este 0 -- -- 99
2018-08-08 03:00:00 13.7 18 Nordeste 30 Este 0 -- -- 99
2018-08-08 02:00:00 14.1 22 Este 31 Este 0 -- -- 99
2018-08-08 01:00:00 14.4 26 Este 34 Este 0 -- -- 99
2018-08-08 00:00:00 14.8 24 Este 36 Este 0 -- -- 99
2018-08-07 23:00:00 15.6 30 Nordeste 43 Este 0 -- -- 99
2018-08-07 22:00:00 17.8 28 Nordeste 37 Nordeste 0 -- -- 92
2018-08-07 21:00:00 23.9 18 Noroeste 26 Noroeste 0 -- -- 51
2018-08-07 20:00:00 26 20 Oeste 31 Oeste 0 -- -- 44
2018-08-07 19:00:00 27.7 15 Oeste 31 Oeste 0 -- -- 45
2018-08-07 18:00:00 27.9 15 Oeste 29 Oeste 0 -- -- 44
2018-08-07 17:00:00 27.8 15 Oeste 32 Oeste 0 -- -- 45
2018-08-07 16:00:00 26.4 17 Oeste 33 Oeste 0 -- -- 46
2018-08-07 15:00:00 25.6 17 Oeste 32 Oeste 0 -- -- 52
2018-08-07 14:00:00 24.6 16 Oeste 28 Oeste 0 -- -- 55
2018-08-07 13:00:00 22.8 15 Oeste 30 Noroeste 0 -- -- 61
2018-08-07 12:00:00 21.2 14 Oeste 24 Oeste 0 -- -- 68
2018-08-07 11:00:00 19 18 Oeste 26 Oeste 0 -- -- 78
2018-08-07 10:00:00 17.3 17 Oeste 28 Oeste 0 -- -- 85
2018-08-07 09:00:00 15.5 18 Oeste 33 Oeste 0 -- -- 93
2018-08-07 08:00:00 14.7 23 Oeste 33 Oeste 0 -- -- 88
2018-08-07 07:00:00 14.4 13 Oeste 18 Oeste 0 -- -- 79
2018-08-07 06:00:00 15.6 8 Sudoeste 21 Oeste 0 -- -- 70
2018-08-07 05:00:00 18.9 16 Oeste 22 Oeste 0 -- -- 58
2018-08-07 04:00:00 20.1 15 Oeste 24 Oeste 0 -- -- 54
2018-08-07 03:00:00 22 7 Oeste 21 Sudoeste 0 -- -- 53
2018-08-07 02:00:00 23.2 17 Sudoeste 23 Oeste 0 -- -- 48
2018-08-07 01:00:00 23.6 12 Sudoeste 17 Sudoeste 0 -- -- 45
2018-08-07 00:00:00 24.8 12 Sur 22 Sudoeste 0 -- -- 43
2018-08-06 23:00:00 27.3 12 Sudoeste 19 Sur 0 -- -- 37
2018-08-06 22:00:00 30.9 12 Sur 69 Oeste 0 -- -- 33
2018-08-06 21:00:00 32 21 Oeste 43 Noroeste 0 -- -- 33
2018-08-06 20:00:00 32.8 19 Noroeste 34 Noroeste 0 -- -- 32
2018-08-06 19:00:00 36.2 9 Oeste 24 Noroeste 0 -- -- 30
2018-08-06 18:00:00 35.9 12 Noroeste 23 Sudoeste 0 -- -- 30
2018-08-06 17:00:00 36.6 10 Oeste 25 Oeste 0 -- -- 33
2018-08-06 16:00:00 35.2 12 Oeste 24 Oeste 0 -- -- 37
2018-08-06 15:00:00 33.7 5 Oeste 25 Noroeste 0 -- -- 42
2018-08-06 14:00:00 32.6 4 Oeste 21 Noroeste 0 -- -- 46
2018-08-06 13:00:00 29.5 4 Sudoeste 12 Sudoeste 0 -- -- 56
2018-08-06 12:00:00 26.4 3 Sudoeste 12 Sudeste 0 -- -- 62
2018-08-06 11:00:00 25.6 5 Sur 12 Sur 0 -- -- 66
2018-08-06 10:00:00 21.7 8 Sudeste 14 Este 0 -- -- 82
2018-08-06 09:00:00 19.2 10 Este 15 Este 0 -- -- 90
2018-08-06 08:00:00 17.3 12 Este 16 Este 0 -- -- 97
2018-08-06 07:00:00 16.2 10 Este 13 Este 0 -- -- 99
2018-08-06 06:00:00 16.5 11 Este 12 Este 0 -- -- 97
2018-08-06 05:00:00 16.3 2 Oeste 12 Este 0 -- -- 94
2018-08-06 04:00:00 19.3 13 Este 18 Este 0 -- -- 85
2018-08-06 03:00:00 20.3 16 Este 21 Este 0 -- -- 82
2018-08-06 02:00:00 21.4 16 Este 23 Este 0 -- -- 76
2018-08-06 01:00:00 22.9 17 Este 23 Este 0 -- -- 69
2018-08-06 00:00:00 23.5 17 Este 21 Nordeste 0 -- -- 52
2018-08-05 23:00:00 27.3 2 Este 3 Este 0 -- -- 40
2018-08-05 22:00:00 28.4 3 Este 5 Este 0 -- -- 39
2018-08-05 21:00:00 30.3 4 Este 10 Norte 0 -- -- 39
2018-08-05 20:00:00 32.1 9 Norte 15 Norte 0 -- -- 37
2018-08-05 19:00:00 33.3 9 Norte 21 Norte 0 -- -- 37
2018-08-05 18:00:00 32.7 7 Nordeste 18 Norte 0 -- -- 39
2018-08-05 17:00:00 32.2 8 Nordeste 21 Nordeste 0 -- -- 38
2018-08-05 16:00:00 31.7 10 Norte 23 Nordeste 0 -- -- 39
2018-08-05 15:00:00 30.8 9 Norte 24 Nordeste 0 -- -- 42
2018-08-05 14:00:00 30.8 10 Norte 24 Nordeste 0 -- -- 46
2018-08-05 13:00:00 28.6 12 Este 26 Este 0 -- -- 51
2018-08-05 12:00:00 26.6 13 Nordeste 24 Nordeste 0 -- -- 60
2018-08-05 11:00:00 24.5 17 Nordeste 24 Este 0 -- -- 68
2018-08-05 10:00:00 21.5 14 Nordeste 21 Este 0 -- -- 80
2018-08-05 09:00:00 19.1 12 Nordeste 21 Nordeste 0 -- -- 89
2018-08-05 08:00:00 16.1 13 Nordeste 24 Nordeste 0 -- -- 96
2018-08-05 07:00:00 14 15 Este 20 Nordeste 0 -- -- 99
2018-08-05 06:00:00 14.6 12 Nordeste 23 Nordeste 0 -- -- 99
2018-08-05 05:00:00 15.7 20 Nordeste 26 Nordeste 0 -- -- 98
2018-08-05 04:00:00 16.8 18 Nordeste 26 Este 0 -- -- 90
2018-08-05 03:00:00 18.2 21 Este 26 Este 0 -- -- 86
2018-08-05 02:00:00 19.3 18 Este 32 Este 0 -- -- 82
2018-08-05 01:00:00 21.1 23 Este 33 Este 0 -- -- 76
2018-08-05 00:00:00 22.1 18 Este 27 Este 0 -- -- 76
2018-08-04 23:00:00 23.9 19 Este 25 Este 0 -- -- 61
2018-08-04 22:00:00 25.7 17 Nordeste 24 Nordeste 0 -- -- 50
2018-08-04 21:00:00 28.6 15 Nordeste 27 Nordeste 0 -- -- 44
2018-08-04 20:00:00 31.4 15 Nordeste 23 Nordeste 0 -- -- 41
2018-08-04 19:00:00 33.3 13 Nordeste 26 Este 0 -- -- 37
2018-08-04 18:00:00 32.9 11 Nordeste 29 Nordeste 0 -- -- 37
2018-08-04 17:00:00 33.3 13 Nordeste 29 Nordeste 0 -- -- 38
2018-08-04 16:00:00 32.5 13 Nordeste 25 Norte 0 -- -- 39
2018-08-04 15:00:00 32 13 Nordeste 27 Nordeste 0 -- -- 41
2018-08-04 14:00:00 31.4 11 Nordeste 25 Este 0 -- -- 41
2018-08-04 13:00:00 30.3 11 Este 22 Este 0 -- -- 45
2018-08-04 12:00:00 27.6 12 Nordeste 21 Nordeste 0 -- -- 55
2018-08-04 11:00:00 25.5 12 Nordeste 21 Este 0 -- -- 65
2018-08-04 10:00:00 23 14 Nordeste 22 Nordeste 0 -- -- 69
2018-08-04 09:00:00 20.6 9 Nordeste 23 Este 0 -- -- 82
2018-08-04 08:00:00 18.3 18 Este 23 Este 0 -- -- 90
2018-08-04 07:00:00 17.5 15 Este 20 Este 0 -- -- 93
2018-08-04 06:00:00 18 14 Este 23 Este 0 -- -- 92
2018-08-04 05:00:00 18.5 20 Este 23 Este 0 -- -- 91
2018-08-04 04:00:00 19.1 18 Este 22 Este 0 -- -- 92
2018-08-04 03:00:00 20.3 17 Este 22 Este 0 -- -- 85
2018-08-04 02:00:00 21.4 17 Este 19 Este 0 -- -- 73
2018-08-04 01:00:00 23 17 Este 26 Este 0 -- -- 55
2018-08-04 00:00:00 25.2 18 Este 27 Este 0 -- -- 47
2018-08-03 23:00:00 26.6 19 Este 28 Este 0 -- -- 40
2018-08-03 22:00:00 27.1 15 Nordeste 23 Nordeste 0 -- -- 38
2018-08-03 21:00:00 29.7 16 Nordeste 27 Nordeste 0 -- -- 36
2018-08-03 20:00:00 32.5 20 Nordeste 29 Nordeste 0 -- -- 36
2018-08-03 19:00:00 34.7 21 Nordeste 33 Nordeste 0 -- -- 36
2018-08-03 18:00:00 35.5 12 Nordeste 29 Nordeste 0 -- -- 38
2018-08-03 17:00:00 36 14 Norte 29 Norte 0 -- -- 37
2018-08-03 16:00:00 35.6 7 Noroeste 34 Norte 0 -- -- 38
2018-08-03 15:00:00 34.3 5 Norte 28 Norte 0 -- -- 41
2018-08-03 14:00:00 33.5 9 Norte 20 Norte 0 -- -- 43
2018-08-03 13:00:00 32.1 6 Norte 18 Norte 0 -- -- 44
2018-08-03 12:00:00 30.6 8 Nordeste 16 Norte 0 -- -- 48
2018-08-03 11:00:00 28 7 Este 12 Nordeste 0 -- -- 57
2018-08-03 10:00:00 23.8 12 Nordeste 15 Nordeste 0 -- -- 75
2018-08-03 09:00:00 21.3 5 Norte 7 Norte 0 -- -- 85
2018-08-03 08:00:00 17.7 6 Nordeste 8 Nordeste 0 -- -- 96
2018-08-03 07:00:00 18.8 5 Este 8 Nordeste 0 -- -- 92
2018-08-03 06:00:00 18.7 3 Este 13 Este 0 -- -- 92
2018-08-03 05:00:00 19.7 5 Este 19 Este 0 -- -- 85
2018-08-03 04:00:00 22.3 18 Este 20 Este 0 -- -- 81
2018-08-03 03:00:00 22.7 17 Este 20 Este 0 -- -- 69
2018-08-03 02:00:00 22.6 16 Este 19 Este 0 -- -- 59
2018-08-03 01:00:00 23.5 15 Este 17 Este 0 -- -- 55
2018-08-03 00:00:00 25.3 13 Este 17 Este 0 -- -- 54
2018-08-02 23:00:00 26.2 13 Este 21 Este 0 -- -- 49
2018-08-02 22:00:00 27.7 13 Nordeste 18 Nordeste 0 -- -- 42
2018-08-02 21:00:00 30.7 9 Nordeste 12 Norte 0 -- -- 37
2018-08-02 20:00:00 34.3 8 Norte 15 Nordeste 0 -- -- 31
2018-08-02 19:00:00 35.7 8 Norte 21 Norte 0 -- -- 31
2018-08-02 18:00:00 35.4 8 Norte 23 Noroeste 0 -- -- 31
2018-08-02 17:00:00 35.2 4 Noroeste 22 Noroeste 0 -- -- 32
2018-08-02 16:00:00 34.2 7 Noroeste 24 Nordeste 0 -- -- 33
2018-08-02 15:00:00 33.7 9 Norte 20 Nordeste 0 -- -- 34
2018-08-02 14:00:00 32.4 7 Nordeste 17 Nordeste 0 -- -- 39
2018-08-02 13:00:00 30.2 8 Norte 16 Norte 0 -- -- 49
2018-08-02 12:00:00 27.6 5 Norte 17 Sudeste 0 -- -- 56
2018-08-02 11:00:00 24.6 8 Este 17 Este 0 -- -- 69
2018-08-02 10:00:00 21.2 11 Este 18 Este 0 -- -- 84
2018-08-02 09:00:00 17.8 13 Este 22 Este 0 -- -- 99
2018-08-02 08:00:00 15.6 17 Este 23 Este 0 -- -- 99
2018-08-02 07:00:00 14.7 13 Este 24 Este 0 -- -- 99
2018-08-02 06:00:00 14.7 20 Este 25 Este 0 -- -- 99
2018-08-02 05:00:00 15 20 Este 28 Este 0 -- -- 99
2018-08-02 04:00:00 15.6 21 Este 30 Este 0 -- -- 99
2018-08-02 03:00:00 16.3 22 Este 29 Este 0 -- -- 99
2018-08-02 02:00:00 17.2 23 Este 31 Este 0 -- -- 99
2018-08-02 01:00:00 18.4 26 Este 78 Este 0 -- -- 99
2018-08-02 00:00:00 19.6 22 Este 26 Este 0 -- -- 98
2018-08-01 23:00:00 22.4 17 Nordeste 28 Nordeste 0 -- -- 83
2018-08-01 22:00:00 25.2 17 Nordeste 25 Nordeste 0 -- -- 52
2018-08-01 21:00:00 28.7 9 Nordeste 12 Norte 0 -- -- 44
2018-08-01 20:00:00 31.4 7 Norte 19 Nordeste 0 -- -- 39
2018-08-01 19:00:00 33.3 8 Nordeste 18 Sudeste 0 -- -- 38
2018-08-01 18:00:00 32.1 7 Nordeste 17 Nordeste 0 -- -- 40
2018-08-01 17:00:00 31.7 5 Sudoeste 17 Oeste 0 -- -- 40
2018-08-01 16:00:00 30.7 8 Nordeste 20 Este 0 -- -- 45
2018-08-01 15:00:00 29.5 7 Nordeste 21 Sudeste 0 -- -- 50
2018-08-01 14:00:00 28.5 11 Este 26 Este 0 -- -- 56
2018-08-01 13:00:00 26.8 13 Este 30 Este 0 -- -- 62
2018-08-01 12:00:00 24.3 15 Nordeste 26 Este 0 -- -- 70
2018-08-01 11:00:00 22.3 16 Este 25 Este 0 -- -- 78
2018-08-01 10:00:00 19.7 17 Este 25 Este 0 -- -- 89
2018-08-01 09:00:00 17 18 Nordeste 26 Este 0 -- -- 99
2018-08-01 08:00:00 15.2 20 Este 29 Este 0 -- -- 99
2018-08-01 07:00:00 14.5 19 Nordeste 29 Este 0 -- -- 99
2018-08-01 06:00:00 14.8 22 Este 33 Este 0 -- -- 99
2018-08-01 05:00:00 15 25 Este 35 Este 0 -- -- 99
2018-08-01 04:00:00 15.3 24 Este 35 Este 0 -- -- 99
2018-08-01 03:00:00 15.7 27 Este 36 Este 0 -- -- 99
2018-08-01 02:00:00 15.6 27 Este 39 Este 0 -- -- 99
2018-08-01 01:00:00 16.1 27 Este 37 Este 0 -- -- 99
2018-08-01 00:00:00 17 27 Este 38 Este 0 -- -- 99
2018-07-31 23:00:00 19 28 Este 40 Este 0 -- -- 92
2018-07-31 22:00:00 21 22 Nordeste 34 Este 0 -- -- 84
2018-07-31 21:00:00 23.3 21 Nordeste 42 Nordeste 0 -- -- 75
2018-07-31 20:00:00 29.1 8 Norte 16 Norte 0 -- -- 45
2018-07-31 19:00:00 30.1 6 Nordeste 17 Norte 0 -- -- 46
2018-07-31 18:00:00 29.4 5 Nordeste 21 Noroeste 0 -- -- 46
2018-07-31 17:00:00 28.6 4 Sudoeste 24 Nordeste 0 -- -- 48
2018-07-31 16:00:00 28.1 6 Noroeste 20 Norte 0 -- -- 50
2018-07-31 15:00:00 27.9 4 Noroeste 15 Sudeste 0 -- -- 53
2018-07-31 14:00:00 26.7 5 Sur 13 Sudeste 0 -- -- 55
2018-07-31 13:00:00 24.6 7 Sudeste 17 Sudeste 0 -- -- 60
2018-07-31 12:00:00 23.2 5 Este 14 Este 0 -- -- 68
2018-07-31 11:00:00 21.6 6 Nordeste 12 Nordeste 0 -- -- 80
2018-07-31 10:00:00 19.3 2 Sudoeste 10 Sur 0 -- -- 90
2018-07-31 09:00:00 16.9 3 Sur 6 Sur 0 -- -- 99
2018-07-31 08:00:00 14.6 0 Calma 8 Oeste 0 -- -- 99
2018-07-31 07:00:00 14.2 5 Noroeste 13 Oeste 0 -- -- 99
2018-07-31 06:00:00 14.3 9 Oeste 14 Oeste 0 -- -- 99
2018-07-31 05:00:00 14.6 11 Oeste 14 Oeste 0 -- -- 99
2018-07-31 04:00:00 15.4 12 Oeste 16 Oeste 0 -- -- 99
2018-07-31 03:00:00 15.8 11 Oeste 15 Oeste 0 -- -- 96
2018-07-31 02:00:00 17.1 12 Oeste 18 Noroeste 0 -- -- 90
2018-07-31 01:00:00 18.5 17 Noroeste 24 Noroeste 0 -- -- 81
2018-07-31 00:00:00 20.4 19 Oeste 27 Noroeste 0 -- -- 69
2018-07-30 23:00:00 21.1 17 Oeste 26 Oeste 0 -- -- 65
2018-07-30 22:00:00 23.3 20 Oeste 35 Oeste 0 -- -- 57
2018-07-30 21:00:00 26.2 18 Oeste 32 Oeste 0 -- -- 48
2018-07-30 20:00:00 28.6 18 Oeste 32 Oeste 0 -- -- 38
2018-07-30 19:00:00 30.4 18 Oeste 35 Oeste 0 -- -- 35
2018-07-30 18:00:00 29.2 21 Oeste 33 Oeste 0 -- -- 36
2018-07-30 17:00:00 29.7 15 Oeste 29 Sudoeste 0 -- -- 38
2018-07-30 16:00:00 29.1 14 Oeste 31 Oeste 0 -- -- 39
2018-07-30 15:00:00 27.6 17 Sudoeste 31 Oeste 0 -- -- 42
2018-07-30 14:00:00 26.4 10 Oeste 24 Sudoeste 0 -- -- 48
2018-07-30 13:00:00 25 9 Oeste 28 Oeste 0 -- -- 56
2018-07-30 12:00:00 23.4 10 Sudoeste 19 Sudoeste 0 -- -- 61
2018-07-30 11:00:00 21.4 9 Sudoeste 19 Oeste 0 -- -- 71
2018-07-30 10:00:00 19 5 Oeste 13 Oeste 0 -- -- 82
2018-07-30 09:00:00 17 5 Oeste 9 Noroeste 0 -- -- 94
2018-07-30 08:00:00 12.7 8 Sudoeste 14 Oeste 0 -- -- 99
2018-07-30 07:00:00 11.9 11 Oeste 14 Oeste 0 -- -- 99
2018-07-30 06:00:00 11.8 10 Sudoeste 13 Oeste 0 -- -- 99
2018-07-30 05:00:00 13.9 11 Oeste 14 Oeste 0 -- -- 99
2018-07-30 04:00:00 15.6 12 Oeste 19 Noroeste 0 -- -- 94
2018-07-30 03:00:00 16.2 14 Oeste 24 Oeste 0 -- -- 88
2018-07-30 02:00:00 17.8 18 Oeste 27 Noroeste 0 -- -- 77
2018-07-30 01:00:00 18.7 20 Oeste 31 Oeste 0 -- -- 68
2018-07-30 00:00:00 19.5 17 Oeste 24 Oeste 0 -- -- 68
2018-07-29 23:00:00 17.4 12 Oeste 16 Oeste 0 -- -- 62
2018-07-29 22:00:00 20.1 15 Oeste 17 Oeste 0 -- -- 47
2018-07-29 21:00:00 25.7 14 Oeste 31 Oeste 0 -- -- 35
2018-07-29 20:00:00 27.8 18 Oeste 29 Oeste 0 -- -- 31
2018-07-29 19:00:00 29.8 15 Oeste 32 Oeste 0 -- -- 31
2018-07-29 18:00:00 28.2 13 Oeste 28 Sudoeste 0 -- -- 32
2018-07-29 17:00:00 28.8 18 Oeste 31 Oeste 0 -- -- 31
2018-07-29 16:00:00 27.9 19 Oeste 32 Oeste 0 -- -- 33
2018-07-29 15:00:00 26.1 14 Sudoeste 33 Oeste 0 -- -- 38
2018-07-29 14:00:00 25 13 Sudoeste 38 Oeste 0 -- -- 45
2018-07-29 13:00:00 23.6 17 Oeste 32 Oeste 0 -- -- 56
2018-07-29 12:00:00 22.3 14 Oeste 25 Oeste 0 -- -- 65
2018-07-29 11:00:00 20.2 9 Oeste 18 Oeste 0 -- -- 76
2018-07-29 10:00:00 17.7 13 Oeste 23 Oeste 0 -- -- 90
2018-07-29 09:00:00 16.2 15 Oeste 23 Oeste 0 -- -- 97
2018-07-29 08:00:00 14 6 Oeste 17 Oeste 0 -- -- 99
2018-07-29 07:00:00 14.6 15 Oeste 22 Oeste 0 -- -- 99
2018-07-29 06:00:00 15.4 15 Oeste 22 Oeste 0 -- -- 92
2018-07-29 05:00:00 15 14 Oeste 19 Noroeste 0 -- -- 82
2018-07-29 04:00:00 15.2 12 Oeste 16 Oeste 0 -- -- 75
2018-07-29 03:00:00 16.1 14 Oeste 18 Oeste 0 -- -- 68
2018-07-29 02:00:00 17.2 15 Oeste 18 Oeste 0 -- -- 62
2018-07-29 01:00:00 19 16 Oeste 24 Oeste 0 -- -- 54
2018-07-29 00:00:00 20.4 18 Oeste 25 Oeste 0 -- -- 49
2018-07-28 23:00:00 20.5 14 Oeste 25 Oeste 0 -- -- 49
2018-07-28 22:00:00 20.8 12 Oeste 15 Oeste 0 -- -- 45
2018-07-28 21:00:00 26.4 10 Oeste 25 Oeste 0 -- -- 34
2018-07-28 20:00:00 28.1 16 Oeste 26 Oeste 0 -- -- 32
2018-07-28 19:00:00 30.3 9 Oeste 29 Oeste 0 -- -- 36
2018-07-28 18:00:00 28.5 14 Oeste 28 Oeste 0 -- -- 37
2018-07-28 17:00:00 28.1 10 Noroeste 28 Noroeste 0 -- -- 39
2018-07-28 16:00:00 27.4 12 Noroeste 27 Oeste 0 -- -- 42
2018-07-28 15:00:00 26 10 Oeste 23 Oeste 0 -- -- 48
2018-07-28 14:00:00 25 8 Noroeste 23 Oeste 0 -- -- 50
2018-07-28 13:00:00 23.3 10 Oeste 25 Oeste 0 -- -- 55
2018-07-28 12:00:00 21.1 6 Sudoeste 18 Sur 0 -- -- 64
2018-07-28 11:00:00 19.5 0 Calma 12 Sudeste 0 -- -- 75
2018-07-28 10:00:00 17.4 2 Este 13 Noroeste 0 -- -- 89
2018-07-28 09:00:00 14.8 9 Noroeste 14 Oeste 0 -- -- 98
2018-07-28 08:00:00 12.2 8 Oeste 18 Oeste 0 -- -- 99
2018-07-28 07:00:00 12.3 12 Oeste 20 Oeste 0 -- -- 99
2018-07-28 06:00:00 12.9 17 Oeste 23 Oeste 0 -- -- 99
2018-07-28 05:00:00 13.3 15 Oeste 19 Oeste 0 -- -- 99
2018-07-28 04:00:00 13.7 9 Oeste 19 Noroeste 0 -- -- 98
2018-07-28 03:00:00 15 15 Noroeste 19 Noroeste 0 -- -- 95
2018-07-28 02:00:00 16.4 17 Noroeste 24 Noroeste 0 -- -- 88
2018-07-28 01:00:00 17.5 18 Noroeste 26 Oeste 0 -- -- 74
2018-07-28 00:00:00 19.5 18 Noroeste 27 Noroeste 0 -- -- 54
2018-07-27 23:00:00 20.7 19 Oeste 30 Oeste 0 -- -- 46
2018-07-27 22:00:00 21.9 17 Oeste 26 Oeste 0 -- -- 44
2018-07-27 21:00:00 25.6 21 Oeste 35 Oeste 0 -- -- 38
2018-07-27 20:00:00 28 22 Oeste 36 Oeste 0 -- -- 34
2018-07-27 19:00:00 28.9 23 Oeste 36 Oeste 0 -- -- 37
2018-07-27 18:00:00 29 20 Oeste 36 Oeste 0 -- -- 41
2018-07-27 17:00:00 29.3 17 Sudoeste 42 Oeste 0 -- -- 40
2018-07-27 16:00:00 27.9 24 Sudoeste 34 Oeste 0 -- -- 42
2018-07-27 15:00:00 27.8 16 Oeste 39 Sudoeste 0 -- -- 44
2018-07-27 14:00:00 27.5 15 Oeste 31 Oeste 0 -- -- 47
2018-07-27 13:00:00 25.3 9 Sudoeste 35 Oeste 0 -- -- 57
2018-07-27 12:00:00 23.5 10 Oeste 20 Oeste 0 -- -- 69
2018-07-27 11:00:00 21.1 13 Noroeste 22 Oeste 0 -- -- 81
2018-07-27 10:00:00 19.7 4 Oeste 8 Sudoeste 0 -- -- 95
2018-07-27 09:00:00 17.7 0 Calma 5 Este 0 -- -- 99
2018-07-27 08:00:00 14.6 2 Este 3 Este 0 -- -- 99
2018-07-27 07:00:00 14.1 0 Calma 13 Este 0 -- -- 99
2018-07-27 06:00:00 15.3 10 Este 14 Este 0 -- -- 99
2018-07-27 05:00:00 15.3 8 Este 16 Este 0 -- -- 99
2018-07-27 04:00:00 15.9 10 Este 19 Este 0 -- -- 99
2018-07-27 03:00:00 16.4 15 Este 24 Este 0 -- -- 99
2018-07-27 02:00:00 16.5 15 Este 22 Este 0 -- -- 99
2018-07-27 01:00:00 17.2 15 Este 23 Este 0 -- -- 99
2018-07-27 00:00:00 17.8 17 Este 27 Este 0 -- -- 99
2018-07-26 23:00:00 19 16 Nordeste 26 Nordeste 0 -- -- 97
2018-07-26 22:00:00 21.8 12 Noroeste 22 Oeste 0 -- -- 51
2018-07-26 21:00:00 27.2 16 Oeste 27 Oeste 0 -- -- 39
2018-07-26 20:00:00 29.8 12 Oeste 26 Oeste 0 -- -- 36
2018-07-26 19:00:00 30.1 15 Oeste 29 Oeste 0 -- -- 36
2018-07-26 18:00:00 30.1 16 Oeste 24 Oeste 0 -- -- 35
2018-07-26 17:00:00 30.6 14 Sudoeste 29 Oeste 0 -- -- 36
2018-07-26 16:00:00 31 14 Sudoeste 31 Sudoeste 0 -- -- 38
2018-07-26 15:00:00 30.1 12 Sudoeste 28 Oeste 0 -- -- 41
2018-07-26 14:00:00 28.4 9 Oeste 24 Este 0 -- -- 51
2018-07-26 13:00:00 27.2 5 Sur 19 Oeste 0 -- -- 48
2018-07-26 12:00:00 25.5 7 Sudoeste 15 Sudoeste 0 -- -- 59
2018-07-26 11:00:00 22.7 4 Oeste 10 Sudoeste 0 -- -- 69
2018-07-26 10:00:00 19.8 2 Sudoeste 6 Sudoeste 0 -- -- 84
2018-07-26 09:00:00 17 2 Sudeste 8 Sudeste 0 -- -- 99
2018-07-26 08:00:00 16.3 4 Este 9 Este 0 -- -- 99
2018-07-26 07:00:00 14.9 7 Este 13 Este 0 -- -- 99
2018-07-26 06:00:00 15.4 10 Este 15 Este 0 -- -- 99
2018-07-26 05:00:00 16 11 Este 15 Este 0 -- -- 99
2018-07-26 04:00:00 16.5 13 Este 20 Este 0 -- -- 99
2018-07-26 03:00:00 17.1 10 Este 15 Este 0 -- -- 99
2018-07-26 02:00:00 17.4 10 Este 17 Nordeste 0 -- -- 99
2018-07-26 01:00:00 18.4 12 Nordeste 16 Nordeste 0 -- -- 99
2018-07-26 00:00:00 19.5 9 Norte 22 Norte 0 -- -- 64
2018-07-25 23:00:00 22 13 Oeste 18 Oeste 0 -- -- 48
2018-07-25 22:00:00 23.7 10 Oeste 13 Oeste 0 -- -- 44
2018-07-25 21:00:00 28.7 11 Oeste 18 Sudoeste 0 -- -- 34
2018-07-25 20:00:00 30.8 8 Sudoeste 22 Oeste 0 -- -- 30
2018-07-25 19:00:00 33 9 Sudoeste 27 Sudoeste 0 -- -- 29
2018-07-25 18:00:00 31.5 14 Sudoeste 27 Sudoeste 0 -- -- 30
2018-07-25 17:00:00 30.9 9 Sur 28 Sudoeste 0 -- -- 34
2018-07-25 16:00:00 31 13 Sudoeste 24 Sur 0 -- -- 39
2018-07-25 15:00:00 29.8 9 Sur 22 Este 0 -- -- 43
2018-07-25 14:00:00 28.9 10 Sur 21 Sur 0 -- -- 43
2018-07-25 13:00:00 26.6 2 Norte 19 Nordeste 0 -- -- 55
2018-07-25 12:00:00 24.2 9 Este 21 Este 0 -- -- 63
2018-07-25 11:00:00 22 12 Este 21 Este 0 -- -- 72
2018-07-25 10:00:00 20 14 Este 24 Este 0 -- -- 85
2018-07-25 09:00:00 17.3 15 Este 22 Este 0 -- -- 99
2018-07-25 08:00:00 15.5 11 Este 18 Este 0 -- -- 99
2018-07-25 07:00:00 14.7 14 Este 23 Este 0 -- -- 99
2018-07-25 06:00:00 15 17 Este 28 Este 0 -- -- 99
2018-07-25 05:00:00 15.6 21 Este 30 Este 0 -- -- 99
2018-07-25 04:00:00 15.7 21 Este 31 Este 0 -- -- 99
2018-07-25 03:00:00 16 20 Este 29 Este 0 -- -- 99
2018-07-25 02:00:00 16.4 21 Este 31 Este 0 -- -- 99
2018-07-25 01:00:00 16.7 22 Este 34 Este 0 -- -- 99
2018-07-25 00:00:00 17.5 24 Este 36 Nordeste 0 -- -- 99
2018-07-24 23:00:00 18.6 22 Nordeste 31 Nordeste 0 -- -- 99
2018-07-24 22:00:00 22.3 20 Nordeste 30 Este 0 -- -- 86
2018-07-24 21:00:00 28.7 3 Sudoeste 11 Sur 0 -- -- 36
2018-07-24 20:00:00 30.1 4 Sur 14 Sur 0 -- -- 33
2018-07-24 19:00:00 31.8 8 Sudoeste 24 Sudeste 0 -- -- 33
2018-07-24 18:00:00 30.8 7 Oeste 32 Noroeste 0 -- -- 33
2018-07-24 17:00:00 30.2 8 Oeste 24 Sudoeste 0 -- -- 32
2018-07-24 16:00:00 29.6 9 Sur 25 Sudoeste 0 -- -- 34
2018-07-24 15:00:00 29.3 9 Sudoeste 25 Sudoeste 0 -- -- 36
2018-07-24 14:00:00 28.3 7 Sur 33 Oeste 0 -- -- 44
2018-07-24 13:00:00 26.4 7 Oeste 25 Oeste 0 -- -- 52
2018-07-24 12:00:00 24.8 14 Oeste 25 Sudoeste 0 -- -- 61
2018-07-24 11:00:00 23 9 Oeste 16 Oeste 0 -- -- 79
2018-07-24 10:00:00 20.8 5 Noroeste 12 Noroeste 0 -- -- 86
2018-07-24 09:00:00 17.8 4 Noroeste 8 Norte 0 -- -- 99
2018-07-24 08:00:00 15.5 4 Oeste 7 Sudoeste 0 -- -- 99
2018-07-24 07:00:00 16.2 5 Sudeste 10 Sudeste 0 -- -- 99
2018-07-24 06:00:00 16.4 5 Sudeste 9 Este 0 -- -- 99
2018-07-24 05:00:00 17.1 7 Este 14 Nordeste 0 -- -- 99
2018-07-24 04:00:00 18.3 12 Este 17 Este 0 -- -- 99
2018-07-24 03:00:00 19.1 14 Este 18 Este 0 -- -- 94
2018-07-24 02:00:00 19.4 14 Este 19 Este 0 -- -- 82
2018-07-24 01:00:00 20.8 14 Este 18 Este 0 -- -- 68
2018-07-24 00:00:00 22.1 12 Nordeste 17 Nordeste 0 -- -- 51
2018-07-23 23:00:00 22.7 8 Norte 14 Norte 0 -- -- 48
2018-07-23 22:00:00 23.2 10 Noroeste 12 Noroeste 0 -- -- 48
2018-07-23 21:00:00 27.6 9 Norte 15 Norte 0 -- -- 40
2018-07-23 20:00:00 28.4 10 Oeste 30 Oeste 0 -- -- 38
2018-07-23 19:00:00 32.7 4 Noroeste 30 Oeste 0 -- -- 34
2018-07-23 18:00:00 30.6 11 Noroeste 28 Noroeste 0 -- -- 34
2018-07-23 17:00:00 31.1 11 Sudoeste 33 Sudoeste 0 -- -- 34
2018-07-23 16:00:00 30.5 16 Oeste 36 Noroeste 0 -- -- 37
2018-07-23 15:00:00 29.6 15 Sudoeste 30 Oeste 0 -- -- 37
2018-07-23 14:00:00 28.8 9 Oeste 25 Sudoeste 0 -- -- 40
2018-07-23 13:00:00 27.4 5 Sur 17 Sur 0 -- -- 46
2018-07-23 12:00:00 24.4 4 Este 13 Este 0 -- -- 58
2018-07-23 11:00:00 21.4 6 Este 17 Este 0 -- -- 72
2018-07-23 10:00:00 18.4 11 Este 19 Este 0 -- -- 85
2018-07-23 09:00:00 15.6 10 Este 15 Este 0 -- -- 98
2018-07-23 08:00:00 13.4 10 Este 14 Este 0 -- -- 99
2018-07-23 07:00:00 12 10 Este 16 Este 0 -- -- 99
2018-07-23 06:00:00 12.6 10 Este 21 Este 0 -- -- 99
2018-07-23 05:00:00 13.5 18 Este 23 Este 0 -- -- 99
2018-07-23 04:00:00 14.3 19 Este 27 Este 0 -- -- 99
2018-07-23 03:00:00 15 19 Este 29 Este 0 -- -- 99
2018-07-23 02:00:00 15.3 20 Este 30 Este 0 -- -- 99
2018-07-23 01:00:00 15.5 19 Este 27 Este 0 -- -- 98
2018-07-23 00:00:00 16.8 20 Este 27 Este 0 -- -- 91
2018-07-22 23:00:00 17.7 17 Nordeste 28 Nordeste 0 -- -- 86
2018-07-22 22:00:00 19.7 16 Nordeste 27 Nordeste 0 -- -- 69
2018-07-22 21:00:00 22.7 18 Nordeste 30 Nordeste 0 -- -- 54
2018-07-22 20:00:00 24.8 17 Nordeste 27 Nordeste 0 -- -- 48
2018-07-22 19:00:00 26.8 15 Norte 27 Norte 0 -- -- 45
2018-07-22 18:00:00 25.6 13 Norte 24 Norte 0 -- -- 46
2018-07-22 17:00:00 25.4 10 Nordeste 25 Norte 0 -- -- 47
2018-07-22 16:00:00 25.2 4 Este 20 Este 0 -- -- 48
2018-07-22 15:00:00 24.7 10 Este 25 Este 0 -- -- 51
2018-07-22 14:00:00 23.1 13 Nordeste 27 Nordeste 0 -- -- 54
2018-07-22 13:00:00 22.2 10 Nordeste 27 Nordeste 0 -- -- 59
2018-07-22 12:00:00 20.9 14 Este 27 Nordeste 0 -- -- 64
2018-07-22 11:00:00 19 14 Nordeste 27 Este 0 -- -- 74
2018-07-22 10:00:00 17 20 Este 28 Este 0 -- -- 81
2018-07-22 09:00:00 14.6 18 Este 25 Este 0 -- -- 98
2018-07-22 08:00:00 12.2 15 Este 24 Este 0 -- -- 99
2018-07-22 07:00:00 10.8 14 Este 18 Nordeste 0 -- -- 99
2018-07-22 06:00:00 9.8 11 Nordeste 17 Este 0 -- -- 99
2018-07-22 05:00:00 11.1 14 Este 17 Este 0 -- -- 99
2018-07-22 04:00:00 11.4 11 Este 15 Este 0 -- -- 99
2018-07-22 03:00:00 12.1 14 Este 17 Este 0 -- -- 99
2018-07-22 02:00:00 11.7 9 Este 14 Este 0 -- -- 99
2018-07-22 01:00:00 12.7 10 Este 13 Este 0 -- -- 99
2018-07-22 00:00:00 13.1 10 Nordeste 13 Nordeste 0 -- -- 97
2018-07-21 23:00:00 15 11 Nordeste 16 Nordeste 0 -- -- 91
2018-07-21 22:00:00 15.8 10 Nordeste 14 Nordeste 0 -- -- 86
2018-07-21 21:00:00 16.6 9 Este 12 Este 0 -- -- 79
2018-07-21 20:00:00 17.2 9 Nordeste 12 Nordeste 0 -- -- 74
2018-07-21 19:00:00 17.9 10 Norte 14 Norte 0 -- -- 68
2018-07-21 18:00:00 18.8 9 Norte 17 Noroeste 0 -- -- 65
2018-07-21 17:00:00 19.1 6 Noroeste 17 Noroeste 0 -- -- 67
2018-07-21 16:00:00 19.5 10 Noroeste 22 Noroeste 0 -- -- 67
2018-07-21 15:00:00 18.8 9 Noroeste 20 Noroeste 0 -- -- 68
2018-07-21 14:00:00 19.2 9 Oeste 24 Oeste 0 -- -- 68
2018-07-21 13:00:00 18.9 8 Oeste 16 Sudeste 0 -- -- 70
2018-07-21 12:00:00 18.4 7 Noroeste 15 Noroeste 0 -- -- 72
2018-07-21 11:00:00 17.4 6 Este -- -- -- -- -- 78
2018-07-21 10:00:00 15.7 14 Este 22 Este 0 -- -- 85
2018-07-21 09:00:00 13 15 Este 22 Este 0 -- -- 99
2018-07-21 08:00:00 11.4 12 Este 19 Este 0 -- -- 99
2018-07-21 07:00:00 9.6 13 Este 22 Este 0 -- -- 99
2018-07-21 06:00:00 9.8 15 Nordeste 20 Nordeste 0 -- -- 99
2018-07-21 05:00:00 9.6 12 Nordeste 15 Este 0 -- -- 99
2018-07-21 04:00:00 10.4 14 Este 22 Este 0 -- -- 99
2018-07-21 03:00:00 10.8 16 Este 23 Este 0 -- -- 99
2018-07-21 02:00:00 10.9 17 Nordeste 23 Este 0 -- -- 99
2018-07-21 01:00:00 11.4 16 Este 22 Este 0 -- -- 99
2018-07-21 00:00:00 12 19 Este 32 Nordeste 0 -- -- 99
2018-07-20 23:00:00 13.1 20 Nordeste 31 Nordeste 0 -- -- 98
2018-07-20 22:00:00 14.4 17 Nordeste 31 Nordeste 0 -- -- 95
2018-07-20 21:00:00 16.9 20 Nordeste 34 Nordeste 0 -- -- 85
2018-07-20 20:00:00 18.7 24 Nordeste 36 Nordeste 0 -- -- 79
2018-07-20 19:00:00 21.4 22 Nordeste 33 Nordeste 0 -- -- 80
2018-07-20 18:00:00 17.4 17 Este 34 Nordeste 0.1 -- -- 96
2018-07-20 17:00:00 16.9 21 Nordeste 45 Nordeste 1.1 -- -- 95
2018-07-20 16:00:00 20.4 25 Nordeste 40 Nordeste 0 -- -- 70
2018-07-20 15:00:00 23.3 21 Nordeste 36 Nordeste 0 -- -- 65
2018-07-20 14:00:00 22.7 16 Nordeste 27 Nordeste 0 -- -- 70
2018-07-20 13:00:00 19.9 10 Este 22 Nordeste 0 -- -- 79
2018-07-20 12:00:00 19.3 16 Nordeste 25 Nordeste 0 -- -- 81
2018-07-20 11:00:00 18 14 Este 26 Este 0 -- -- 89
2018-07-20 10:00:00 16.8 18 Este 30 Nordeste 0 -- -- 95
2018-07-20 09:00:00 15.4 17 Nordeste 28 Nordeste 0 -- -- 99
2018-07-20 08:00:00 14.2 19 Nordeste 28 Este 0 -- -- 99
2018-07-20 07:00:00 13.6 15 Nordeste 27 Nordeste 0 -- -- 99
2018-07-20 06:00:00 14.2 19 Nordeste 27 Nordeste 0 -- -- 99
2018-07-20 05:00:00 14.7 21 Este 30 Nordeste 0 -- -- 99
2018-07-20 04:00:00 14.4 19 Nordeste 31 Este 0 -- -- 99
2018-07-20 03:00:00 14.1 21 Nordeste 30 Nordeste 0 -- -- 99
2018-07-20 02:00:00 14.5 21 Este 31 Este 0 -- -- 99
2018-07-20 01:00:00 15.4 22 Este 73 Este 0 -- -- 99
2018-07-20 00:00:00 15.8 20 Este 41 Este 0 -- -- 99